Time;durP1;ratioP1;P1;durP2;ratioP2;P2;SDS_P1;SDS_P2;PMS_P1;PMS_P2;Temp;Humidity;BMP_temperature;BMP_pressure;BME280_temperature;BME280_humidity;BME280_pressure;Samples;Min_cycle;Max_cycle;Signal;HPM_P1;HPM_P2
2022/08/26 00:01:24;;;;;;;12.35;3.60;;;;;;;24.85;52.57;94578.44;4939942;28;20031;-62
2022/08/26 00:03:50;;;;;;;14.77;3.60;;;;;;;24.26;52.41;94484.13;4933469;28;20078;-62
2022/08/26 00:06:15;;;;;;;9.05;3.50;;;;;;;24.60;52.59;94540.25;4938238;28;20075;-62
2022/08/26 00:08:41;;;;;;;7.68;3.08;;;;;;;24.77;52.96;94581.59;4941914;28;20122;-62
2022/08/26 00:11:07;;;;;;;7.40;3.33;;;;;;;24.49;53.09;94529.59;4939051;28;20043;-62
2022/08/26 00:13:33;;;;;;;8.95;3.15;;;;;;;24.43;53.45;94526.25;4940460;28;20502;-62
2022/08/26 00:15:59;;;;;;;11.15;3.05;;;;;;;24.82;53.38;94584.94;4928005;28;20020;-62
2022/08/26 00:18:24;;;;;;;15.27;3.50;;;;;;;24.90;53.37;94604.91;4939207;28;20041;-62
2022/08/26 00:20:50;;;;;;;9.98;3.50;;;;;;;24.33;53.63;94521.75;4939808;28;20089;-63
2022/08/26 00:23:16;;;;;;;9.60;2.90;;;;;;;24.81;53.40;94582.03;4943746;28;20051;-62
2022/08/26 00:25:42;;;;;;;15.52;3.40;;;;;;;24.48;53.44;94539.03;4940869;28;20062;-63
2022/08/26 00:28:07;;;;;;;11.48;3.10;;;;;;;24.39;53.57;94532.03;4938002;28;20066;-62
2022/08/26 00:30:33;;;;;;;10.65;3.30;;;;;;;24.61;53.41;94558.13;4938990;28;20067;-62
2022/08/26 00:32:59;;;;;;;14.90;3.97;;;;;;;24.29;53.57;94516.56;4943148;28;20069;-63
2022/08/26 00:35:24;;;;;;;8.23;3.15;;;;;;;24.32;52.79;94531.91;4938993;28;20069;-62
2022/08/26 00:37:50;;;;;;;13.65;3.25;;;;;;;24.28;52.51;94517.84;4938689;28;20092;-62
2022/08/26 00:40:18;;;;;;;11.32;3.45;;;;;;;24.04;52.85;94495.50;4940209;28;20169;-62
2022/08/26 00:42:44;;;;;;;11.05;2.85;;;;;;;24.76;52.96;94607.47;4938353;28;20042;-62
2022/08/26 00:45:09;;;;;;;10.52;2.85;;;;;;;24.46;52.93;94552.47;4938862;28;20522;-62
2022/08/26 00:47:51;;;;;;;14.55;3.22;;;;;;;24.65;53.53;94578.38;4939020;28;20039;-62
2022/08/26 00:50:20;;;;;;;10.57;3.05;;;;;;;24.59;53.34;94569.56;4930675;28;20055;-62
2022/08/26 00:52:46;;;;;;;;;;;;;;;24.78;53.02;94604.94;4925683;28;20126;-62
2022/08/26 00:55:25;;;;;;;8.55;2.97;;;;;;;24.54;53.12;94580.59;4940222;28;20048;-62
2022/08/26 00:57:51;;;;;;;15.13;3.70;;;;;;;24.78;53.02;94596.72;4925778;28;20480;-62
2022/08/26 01:00:20;;;;;;;11.40;3.58;;;;;;;24.78;52.35;94605.66;4939632;28;20092;-63
2022/08/26 01:02:46;;;;;;;16.20;4.18;;;;;;;24.76;52.93;94612.91;4939484;28;20579;-62
2022/08/26 01:05:12;;;;;;;12.70;3.90;;;;;;;24.79;52.82;94600.94;4939222;28;20035;-60
2022/08/26 01:07:38;;;;;;;13.40;3.83;;;;;;;24.47;52.81;94564.88;4940899;28;20023;-63
2022/08/26 01:10:06;;;;;;;11.75;3.90;;;;;;;24.71;53.18;94597.38;4930397;28;20044;-61
2022/08/26 01:12:33;;;;;;;16.00;3.92;;;;;;;24.63;53.65;94588.34;4925859;28;20121;-62
2022/08/26 01:14:58;;;;;;;15.95;3.80;;;;;;;24.63;53.92;94589.06;4914715;28;20110;-62
2022/08/26 01:17:24;;;;;;;11.68;3.55;;;;;;;24.63;53.24;94588.34;4918818;28;20497;-62
2022/08/26 01:19:52;;;;;;;11.05;3.10;;;;;;;24.49;53.01;94545.97;4942468;28;20039;-61
2022/08/26 01:22:30;;;;;;;13.43;3.53;;;;;;;24.76;53.28;94591.06;4926762;28;20027;-62
2022/08/26 01:24:57;;;;;;;13.50;4.22;;;;;;;24.58;53.13;94553.72;4907815;28;20061;-62
2022/08/26 01:27:23;;;;;;;8.60;2.85;;;;;;;24.11;53.12;94501.06;4928271;28;20039;-62
2022/08/26 01:29:50;;;;;;;10.52;3.05;;;;;;;24.71;53.30;94584.47;4932094;28;20429;-61
2022/08/26 01:32:18;;;;;;;14.40;3.88;;;;;;;24.61;53.50;94574.50;4938172;28;20122;-61
2022/08/26 01:34:43;;;;;;;12.13;3.53;;;;;;;23.98;53.28;94479.25;4911603;28;20030;-61
2022/08/26 01:37:14;;;;;;;11.27;3.42;;;;;;;24.07;53.64;94506.09;4913631;28;20031;-62
2022/08/26 01:39:39;;;;;;;13.98;3.60;;;;;;;24.42;52.89;94543.88;4923536;28;20085;-63
2022/08/26 01:42:07;;;;;;;10.18;3.45;;;;;;;24.72;52.92;94579.72;4932918;28;20039;-62
2022/08/26 01:44:35;;;;;;;9.43;3.75;;;;;;;24.68;53.29;94584.75;4937686;28;20050;-62
2022/08/26 01:47:00;;;;;;;8.30;3.03;;;;;;;24.32;54.05;94536.59;4916914;28;20031;-62
2022/08/26 01:49:26;;;;;;;11.00;3.72;;;;;;;24.58;53.96;94575.56;4917359;28;20085;-62
2022/08/26 01:51:52;;;;;;;12.07;3.30;;;;;;;24.41;53.86;94539.69;4915105;28;20051;-62
2022/08/26 01:54:18;;;;;;;8.45;3.28;;;;;;;24.69;53.70;94586.97;4942168;28;20051;-61
2022/08/26 01:56:44;;;;;;;10.65;3.05;;;;;;;24.45;53.95;94565.41;4915087;28;20047;-61
2022/08/26 01:59:10;;;;;;;15.07;3.35;;;;;;;24.60;54.25;94583.94;4954355;28;20047;-61
2022/08/26 02:01:36;;;;;;;7.07;3.03;;;;;;;24.16;54.59;94513.84;4927171;28;20042;-62
2022/08/26 02:04:22;;;;;;;9.27;2.90;;;;;;;24.66;54.16;94581.84;4943417;28;20035;-61
2022/08/26 02:06:47;;;;;;;12.18;3.17;;;;;;;24.62;54.03;94573.22;4941711;28;20122;-62
2022/08/26 02:09:13;;;;;;;7.63;3.17;;;;;;;24.12;53.91;94507.97;4929349;28;20050;-61
2022/08/26 02:11:38;;;;;;;12.38;3.35;;;;;;;24.25;54.41;94540.72;4945032;28;20034;-61
2022/08/26 02:14:21;;;;;;;9.75;3.47;;;;;;;24.27;54.80;94535.44;4942969;28;20105;-62
2022/08/26 02:16:49;;;;;;;12.73;3.60;;;;;;;24.25;54.43;94531.81;4942238;28;20047;-62
2022/08/26 02:19:36;;;;;;;10.07;3.22;;;;;;;24.27;54.56;94548.38;4928196;28;20124;-62
2022/08/26 02:22:10;;;;;;;10.02;3.38;;;;;;;24.15;54.43;94512.38;4942109;28;20066;-62
2022/08/26 02:24:46;;;;;;;15.27;3.25;;;;;;;24.58;54.55;94586.47;4943407;28;20062;-61
2022/08/26 02:27:13;;;;;;;12.02;3.20;;;;;;;24.27;54.57;94557.28;4939630;28;20086;-62
2022/08/26 02:29:40;;;;;;;13.00;3.58;;;;;;;24.55;54.83;94574.59;4938347;28;20142;-62
2022/08/26 02:32:07;;;;;;;11.77;3.17;;;;;;;23.99;54.45;94488.91;4934336;28;20573;-61
2022/08/26 02:34:32;;;;;;;13.68;3.35;;;;;;;24.25;54.67;94532.53;4937723;28;20039;-62
2022/08/26 02:36:59;;;;;;;11.50;3.38;;;;;;;24.48;54.63;94566.31;4940419;28;20579;-61
2022/08/26 02:39:24;;;;;;;13.35;3.22;;;;;;;24.04;55.03;94500.97;4938930;28;20050;-62
2022/08/26 02:41:50;;;;;;;13.25;3.65;;;;;;;24.33;55.18;94544.28;4939705;28;20043;-61
2022/08/26 02:44:16;;;;;;;11.98;3.45;;;;;;;24.22;54.63;94533.56;4937675;28;20047;-61
2022/08/26 02:46:41;;;;;;;9.48;3.35;;;;;;;24.44;54.32;94561.19;4942656;28;20039;-61
2022/08/26 02:49:08;;;;;;;11.73;2.95;;;;;;;24.03;55.02;94530.22;4941804;28;20547;-62
2022/08/26 02:51:33;;;;;;;11.10;3.15;;;;;;;24.04;54.52;94507.16;4941988;28;20124;-63
2022/08/26 02:53:59;;;;;;;9.70;3.03;;;;;;;24.42;55.02;94573.88;4937970;28;20100;-58
2022/08/26 02:56:24;;;;;;;11.23;3.47;;;;;;;24.21;54.92;94543.00;4937976;28;20101;-63
2022/08/26 02:58:50;;;;;;;9.75;3.38;;;;;;;24.21;54.68;94537.56;4940863;28;20074;-63
2022/08/26 03:01:20;;;;;;;10.27;3.15;;;;;;;24.50;55.22;94580.19;4941648;28;20023;-64
2022/08/26 03:03:46;;;;;;;10.25;3.65;;;;;;;24.56;55.15;94583.56;4942417;28;20531;-62
2022/08/26 03:06:11;;;;;;;11.35;3.40;;;;;;;23.29;54.74;94416.59;4940420;28;20449;-61
2022/08/26 03:08:38;;;;;;;9.60;3.42;;;;;;;24.42;54.91;94580.09;4940289;28;20027;-63
2022/08/26 03:11:03;;;;;;;10.93;3.70;;;;;;;23.83;54.22;94502.13;4940803;28;20036;-63
2022/08/26 03:13:29;;;;;;;10.88;3.65;;;;;;;24.34;54.02;94575.78;4940765;28;20092;-62
2022/08/26 03:15:55;;;;;;;15.68;4.18;;;;;;;23.83;54.09;94502.84;4939506;28;20493;-61
2022/08/26 03:18:20;;;;;;;8.82;3.05;;;;;;;24.21;54.13;94553.19;4937372;28;20035;-63
2022/08/26 03:20:46;;;;;;;12.65;3.10;;;;;;;24.05;54.30;94525.00;4942019;28;20364;-62
2022/08/26 03:23:11;;;;;;;11.40;3.85;;;;;;;24.14;54.26;94549.13;4940821;28;20031;-63
2022/08/26 03:25:37;;;;;;;10.73;3.80;;;;;;;24.37;54.43;94572.00;4942377;28;20395;-63
2022/08/26 03:28:02;;;;;;;8.80;3.17;;;;;;;23.95;54.49;94515.03;4938092;28;20510;-62
2022/08/26 03:30:40;;;;;;;8.80;3.13;;;;;;;24.10;54.90;94537.78;4938829;28;20082;-62
2022/08/26 03:33:07;;;;;;;9.68;3.40;;;;;;;24.29;54.36;94565.69;4939515;28;20043;-62
2022/08/26 03:35:33;;;;;;;11.52;3.35;;;;;;;24.29;54.70;94571.16;4937540;28;20322;-63
2022/08/26 03:37:58;;;;;;;11.73;3.30;;;;;;;24.01;54.22;94526.56;4939047;28;20530;-62
2022/08/26 03:40:24;;;;;;;14.50;3.90;;;;;;;24.44;54.12;94593.22;4940001;28;20031;-63
2022/08/26 03:42:49;;;;;;;10.30;3.70;;;;;;;24.44;54.17;94587.75;4939059;28;20035;-62
2022/08/26 03:45:16;;;;;;;11.88;3.50;;;;;;;24.42;54.16;94584.81;4938084;28;20487;-62
2022/08/26 03:47:41;;;;;;;13.55;3.63;;;;;;;24.47;53.85;94586.72;4940491;28;20042;-62
2022/08/26 03:50:08;;;;;;;11.38;3.65;;;;;;;24.36;54.30;94565.81;4938565;28;20043;-62
2022/08/26 03:52:34;;;;;;;11.65;3.78;;;;;;;24.43;54.62;94586.28;4940221;28;20035;-61
2022/08/26 03:54:59;;;;;;;13.70;3.17;;;;;;;24.39;54.72;94585.84;4941362;28;20030;-62
2022/08/26 03:57:25;;;;;;;16.30;4.05;;;;;;;23.88;54.65;94505.50;4940504;28;20031;-62
2022/08/26 03:59:50;;;;;;;11.63;3.22;;;;;;;24.40;54.22;94587.34;4940194;28;20039;-61
2022/08/26 04:02:16;;;;;;;10.93;3.30;;;;;;;24.29;54.13;94565.69;4940450;28;20083;-63
2022/08/26 04:04:41;;;;;;;11.38;3.90;;;;;;;24.50;53.72;94585.66;4938649;28;20454;-62
2022/08/26 04:07:07;;;;;;;14.63;3.47;;;;;;;24.13;53.59;94542.19;4927772;28;20467;-61
2022/08/26 04:09:32;;;;;;;13.80;3.63;;;;;;;24.43;54.57;94584.28;4939572;28;20102;-62
2022/08/26 04:11:58;;;;;;;12.68;3.35;;;;;;;24.07;55.01;94538.81;4939796;28;20100;-63
2022/08/26 04:14:24;;;;;;;14.20;3.83;;;;;;;24.39;54.98;94585.84;4968848;28;20035;-61
2022/08/26 04:16:50;;;;;;;14.07;3.33;;;;;;;24.02;54.20;94530.75;4939727;28;20096;-63
2022/08/26 04:19:16;;;;;;;14.65;4.00;;;;;;;24.48;54.08;94582.69;4935124;28;20885;-60
2022/08/26 04:21:42;;;;;;;10.45;3.53;;;;;;;24.24;54.22;94547.41;4955499;28;20331;-61
2022/08/26 04:24:08;;;;;;;12.93;3.50;;;;;;;24.09;54.51;94536.31;4937392;28;20073;-62
2022/08/26 04:26:36;;;;;;;9.68;3.47;;;;;;;23.69;54.58;94476.09;4927761;28;20047;-60
2022/08/26 04:29:05;;;;;;;10.00;3.22;;;;;;;24.06;54.11;94536.63;4932110;28;20059;-61
2022/08/26 04:31:32;;;;;;;12.45;4.18;;;;;;;24.49;54.37;94586.91;4926755;28;20027;-60
2022/08/26 04:33:58;;;;;;;14.48;3.90;;;;;;;24.11;53.75;94538.50;4932634;28;20026;-63
2022/08/26 04:36:23;;;;;;;13.95;4.00;;;;;;;24.47;53.74;94578.53;4934112;28;20044;-62
2022/08/26 04:38:49;;;;;;;9.93;3.20;;;;;;;24.34;54.33;94567.59;4934465;28;20047;-62
2022/08/26 04:41:16;;;;;;;11.02;3.63;;;;;;;24.44;54.08;94571.38;4938527;28;20472;-60
2022/08/26 04:43:41;;;;;;;15.68;4.05;;;;;;;24.36;53.83;94565.06;4937448;28;20150;-62
2022/08/26 04:46:08;;;;;;;14.98;3.55;;;;;;;23.99;53.38;94510.72;4922685;28;20042;-61
2022/08/26 04:48:34;;;;;;;10.57;3.47;;;;;;;24.55;53.38;94593.00;4937092;28;20050;-62
2022/08/26 04:51:00;;;;;;;15.63;3.92;;;;;;;24.29;53.39;94543.88;4939549;28;20488;-61
2022/08/26 04:53:25;;;;;;;19.10;4.43;;;;;;;24.39;53.85;94564.78;4931333;28;20023;-60
2022/08/26 04:55:51;;;;;;;15.02;3.97;;;;;;;24.19;53.10;94545.53;4927563;28;20132;-62
2022/08/26 04:58:17;;;;;;;12.50;3.90;;;;;;;24.50;53.29;94585.66;4939524;28;20035;-59
2022/08/26 05:00:47;;;;;;;14.30;3.88;;;;;;;24.39;53.24;94580.41;4939661;28;20048;-61
2022/08/26 05:03:12;;;;;;;13.38;3.67;;;;;;;22.52;53.23;94325.34;4933165;28;20040;-60
2022/08/26 05:05:42;;;;;;;12.90;3.25;;;;;;;24.14;53.81;94537.44;4932236;28;20105;-60
2022/08/26 05:08:09;;;;;;;14.90;4.20;;;;;;;24.60;53.59;94587.44;4931854;28;20098;-62
2022/08/26 05:10:41;;;;;;;12.82;3.85;;;;;;;24.28;53.48;94526.00;4931244;28;20030;-60
2022/08/26 05:13:06;;;;;;;15.88;5.40;;;;;;;24.02;53.62;94482.41;4928751;28;20404;-63
2022/08/26 05:15:33;;;;;;;18.05;4.28;;;;;;;24.74;53.37;94591.59;4929456;28;20530;-61
2022/08/26 05:17:59;;;;;;;15.70;4.50;;;;;;;24.80;52.30;94602.38;4936046;28;20601;-60
2022/08/26 05:20:24;;;;;;;16.20;4.35;;;;;;;24.89;52.02;94589.78;4936781;28;20031;-62
2022/08/26 05:22:50;;;;;;;14.77;4.50;;;;;;;24.84;52.23;94603.53;4933818;28;20047;-61
2022/08/26 05:25:16;;;;;;;12.88;4.75;;;;;;;24.89;52.02;94584.31;4939520;28;20787;-60
2022/08/26 05:27:41;;;;;;;17.25;4.03;;;;;;;24.52;51.84;94523.06;4934026;28;20040;-60
2022/08/26 05:30:08;;;;;;;15.02;4.03;;;;;;;25.09;52.58;94602.78;4919840;28;20044;-59
2022/08/26 05:32:33;;;;;;;15.98;4.30;;;;;;;25.00;53.06;94577.91;4927428;28;20576;-61
2022/08/26 05:34:59;;;;;;;14.05;4.10;;;;;;;24.78;53.45;94544.84;4938221;28;20040;-62
2022/08/26 05:37:24;;;;;;;14.80;4.22;;;;;;;25.15;53.17;94600.66;4936519;28;20118;-60
2022/08/26 05:39:49;;;;;;;16.40;4.03;;;;;;;24.95;52.74;94571.28;4938496;28;20031;-61
2022/08/26 05:42:15;;;;;;;15.52;4.47;;;;;;;24.98;52.37;94553.09;4935553;28;20371;-62
2022/08/26 05:44:41;;;;;;;15.63;4.18;;;;;;;25.34;52.58;94595.75;4936563;28;20050;-62
2022/08/26 05:47:06;;;;;;;15.80;4.15;;;;;;;25.32;52.81;94593.56;4936135;28;20039;-63
2022/08/26 05:49:31;;;;;;;15.88;4.57;;;;;;;25.32;52.43;94593.56;4939200;28;20042;-59
2022/08/26 05:51:57;;;;;;;16.00;4.70;;;;;;;25.42;52.05;94585.63;4938620;28;20020;-60
2022/08/26 05:54:22;;;;;;;16.98;4.53;;;;;;;25.68;50.95;94607.38;4938682;28;20516;-61
2022/08/26 05:56:52;;;;;;;17.30;4.25;;;;;;;25.50;50.78;94592.63;4938043;28;20051;-61
2022/08/26 05:59:17;;;;;;;17.85;4.63;;;;;;;25.35;50.63;94561.66;4937934;28;20058;-60
2022/08/26 06:01:43;;;;;;;14.63;4.05;;;;;;;25.67;50.76;94584.78;4935765;28;20032;-60
2022/08/26 06:04:08;;;;;;;19.45;4.60;;;;;;;25.56;50.17;94556.94;4938642;28;20031;-60
2022/08/26 06:06:35;;;;;;;18.55;4.72;;;;;;;25.70;50.72;94580.25;4936109;28;20036;-60
2022/08/26 06:09:01;;;;;;;12.65;4.28;;;;;;;25.92;50.79;94611.25;4931653;28;20550;-60
2022/08/26 06:11:27;;;;;;;19.02;4.65;;;;;;;25.54;49.99;94540.34;4954172;28;20051;-59
2022/08/26 06:13:53;;;;;;;14.60;4.07;;;;;;;25.72;50.07;94569.50;4933611;28;20043;-61
2022/08/26 06:16:21;;;;;;;17.33;5.10;;;;;;;25.63;50.56;94561.75;4930071;28;20020;-60
2022/08/26 06:18:47;;;;;;;14.98;4.25;;;;;;;26.06;49.75;94626.31;4959420;28;20063;-61
2022/08/26 06:21:14;;;;;;;15.45;4.35;;;;;;;26.15;50.13;94623.09;4926590;28;20446;-61
2022/08/26 06:26:23;;;;;;;15.93;4.45;;;;;;;26.16;49.29;94612.88;4941043;28;20578;-65
2022/08/26 06:28:49;;;;;;;21.35;4.75;;;;;;;26.26;49.09;94617.34;4936151;28;20035;-62
2022/08/26 06:31:14;;;;;;;12.40;4.63;;;;;;;26.07;49.24;94573.06;4948554;28;20046;-65
2022/08/26 06:33:41;;;;;;;14.95;4.78;;;;;;;26.25;49.30;94602.19;4941934;28;20058;-62
2022/08/26 06:36:06;;;;;;;15.00;4.15;;;;;;;25.88;48.43;94560.88;4946229;28;20048;-65
2022/08/26 06:38:32;;;;;;;19.15;4.75;;;;;;;25.94;48.58;94559.47;4943299;28;20508;-65
2022/08/26 06:40:57;;;;;;;14.18;4.60;;;;;;;25.49;49.05;94492.00;4929477;28;20043;-67
2022/08/26 06:43:25;;;;;;;13.05;3.92;;;;;;;26.48;48.82;94633.22;4941756;28;20357;-64
2022/08/26 06:45:51;;;;;;;16.33;4.20;;;;;;;26.34;48.64;94618.16;4935086;28;20051;-64
2022/08/26 06:48:18;;;;;;;12.82;4.32;;;;;;;26.58;48.83;94626.69;4933533;28;20046;-63
2022/08/26 06:50:44;;;;;;;16.45;4.93;;;;;;;26.42;49.68;94607.97;4932728;28;20046;-66
2022/08/26 06:53:10;;;;;;;16.83;5.35;;;;;;;26.64;49.31;94629.31;4936703;28;20475;-64
2022/08/26 06:55:40;;;;;;;18.73;4.90;;;;;;;26.45;49.49;94607.63;4936857;28;20053;-66
2022/08/26 06:58:05;;;;;;;16.92;4.85;;;;;;;26.69;49.41;94631.16;4922251;28;20135;-65
2022/08/26 07:00:32;;;;;;;17.02;4.95;;;;;;;26.61;50.13;94613.94;4925846;28;20047;-62
2022/08/26 07:02:57;;;;;;;16.58;4.93;;;;;;;26.72;50.24;94624.59;4935349;28;20118;-62
2022/08/26 07:05:24;;;;;;;18.83;4.53;;;;;;;26.18;49.12;94539.91;4928096;28;20044;-63
2022/08/26 07:07:51;;;;;;;16.73;5.53;;;;;;;26.55;49.67;94594.19;4932640;28;20058;-63
2022/08/26 07:10:16;;;;;;;16.50;4.80;;;;;;;26.74;49.15;94611.06;4942079;28;20169;-63
2022/08/26 07:12:42;;;;;;;16.77;4.60;;;;;;;26.79;48.96;94608.91;4939138;28;20039;-66
2022/08/26 07:15:09;;;;;;;14.88;4.93;;;;;;;26.66;49.24;94577.44;4936510;28;20068;-62
2022/08/26 07:17:34;;;;;;;16.52;4.68;;;;;;;26.96;48.77;94622.16;4942398;28;20069;-62
2022/08/26 07:20:01;;;;;;;16.25;4.72;;;;;;;26.63;48.86;94578.53;4936200;28;20059;-64
2022/08/26 07:22:27;;;;;;;17.92;5.18;;;;;;;27.08;49.49;94629.50;4933663;28;20023;-63
2022/08/26 07:24:53;;;;;;;16.23;4.78;;;;;;;27.01;49.93;94624.75;4937871;28;20042;-64
2022/08/26 07:27:19;;;;;;;13.70;4.05;;;;;;;26.89;49.19;94601.69;4938883;28;20534;-65
2022/08/26 07:29:45;;;;;;;17.50;4.90;;;;;;;26.94;49.16;94598.03;4941876;28;20043;-61
2022/08/26 07:32:12;;;;;;;16.20;4.57;;;;;;;26.93;48.50;94591.09;4933806;28;20549;-63
2022/08/26 07:34:37;;;;;;;13.25;4.10;;;;;;;26.93;47.97;94580.13;4940683;28;20036;-63
2022/08/26 07:37:03;;;;;;;19.10;4.65;;;;;;;27.01;47.87;94591.13;4937161;28;20027;-63
2022/08/26 07:39:29;;;;;;;16.27;4.80;;;;;;;26.93;48.25;94563.69;4937687;28;20597;-68
2022/08/26 07:41:55;;;;;;;17.05;5.22;;;;;;;27.44;47.54;94622.69;4937372;28;20062;-64
2022/08/26 07:44:20;;;;;;;19.80;5.10;;;;;;;27.25;47.09;94583.16;4941594;28;20059;-63
2022/08/26 07:46:46;;;;;;;11.98;4.20;;;;;;;27.60;47.51;94620.75;4938932;28;20040;-64
2022/08/26 07:49:11;;;;;;;14.45;4.53;;;;;;;27.27;47.06;94575.13;4941993;28;20038;-62
2022/08/26 07:51:37;;;;;;;19.02;5.22;;;;;;;27.06;47.46;94588.22;4938343;28;20048;-66
2022/08/26 07:54:03;;;;;;;18.20;5.22;;;;;;;27.29;47.62;94580.78;4941018;28;20037;-64
2022/08/26 07:56:29;;;;;;;18.00;5.07;;;;;;;27.60;47.51;94628.97;4930140;28;20039;-65
2022/08/26 07:58:54;;;;;;;15.25;5.35;;;;;;;27.37;48.43;94600.75;4950426;28;20108;-63
2022/08/26 08:01:22;;;;;;;15.73;5.55;;;;;;;27.61;47.82;94619.44;4924387;28;20081;-62
2022/08/26 08:03:50;;;;;;;17.08;4.97;;;;;;;27.64;47.28;94596.41;4935727;28;20023;-65
2022/08/26 08:06:16;;;;;;;15.30;4.65;;;;;;;27.87;48.01;94626.06;4939225;28;20035;-64
2022/08/26 08:08:43;;;;;;;19.17;5.40;;;;;;;27.28;47.86;94554.66;4942269;28;20461;-61
2022/08/26 08:11:08;;;;;;;16.90;5.35;;;;;;;27.78;47.99;94639.59;4939713;28;20107;-62
2022/08/26 08:13:36;;;;;;;19.63;5.50;;;;;;;27.42;48.30;94572.41;4943709;28;20023;-63
2022/08/26 08:16:01;;;;;;;15.85;5.20;;;;;;;28.05;47.44;94641.44;4925814;28;20031;-65
2022/08/26 08:18:27;;;;;;;19.17;5.32;;;;;;;27.75;47.49;94589.28;4927837;28;20047;-63
2022/08/26 08:20:53;;;;;;;14.48;5.18;;;;;;;27.71;47.29;94568.25;4938326;28;20556;-62
2022/08/26 08:23:19;;;;;;;15.10;5.22;;;;;;;27.96;47.53;94628.25;4939627;28;20437;-62
2022/08/26 08:25:44;;;;;;;20.40;5.95;;;;;;;28.13;47.44;94625.75;4924900;28;20055;-66
2022/08/26 08:28:10;;;;;;;17.17;5.05;;;;;;;28.22;46.78;94630.69;4934971;28;20031;-68
2022/08/26 08:30:37;;;;;;;23.08;5.65;;;;;;;28.11;46.60;94633.78;4938932;28;20062;-64
2022/08/26 08:33:03;;;;;;;18.85;5.28;;;;;;;28.15;46.61;94631.41;4937998;28;20071;-63
2022/08/26 08:35:28;;;;;;;17.20;4.97;;;;;;;27.95;45.96;94591.13;4925611;28;20402;-63
2022/08/26 08:37:55;;;;;;;20.77;5.47;;;;;;;28.19;45.82;94631.78;4938288;28;20055;-62
2022/08/26 08:40:23;;;;;;;14.27;4.55;;;;;;;27.81;44.65;94556.91;4941086;28;20056;-62
2022/08/26 08:43:04;;;;;;;17.83;5.38;;;;;;;27.94;45.21;94559.47;4937504;28;20071;-62
2022/08/26 08:45:34;;;;;;;14.77;4.57;;;;;;;28.37;45.11;94622.41;4937063;28;20044;-63
2022/08/26 08:48:11;;;;;;;20.85;5.32;;;;;;;28.32;44.28;94620.59;4927468;28;20039;-64
2022/08/26 08:50:48;;;;;;;15.80;5.40;;;;;;;28.27;43.85;94603.00;4937342;28;20043;-62
2022/08/26 08:53:20;;;;;;;16.52;4.97;;;;;;;28.28;43.65;94609.97;5003992;28;20498;-64
2022/08/26 08:56:07;;;;;;;15.40;5.40;;;;;;;28.43;44.24;94620.19;4986283;28;20043;-61
2022/08/26 08:58:39;;;;;;;15.80;4.95;;;;;;;28.52;43.63;94616.88;4926572;28;20032;-62
2022/08/26 09:01:05;;;;;;;16.25;4.50;;;;;;;27.87;44.92;94549.22;4939666;28;20070;-61
2022/08/26 09:03:52;;;;;;;14.75;4.63;;;;;;;28.46;45.28;94610.84;4933972;28;20035;-61
2022/08/26 09:06:19;;;;;;;15.45;4.95;;;;;;;28.45;45.11;94606.66;4925650;28;20075;-61
2022/08/26 09:08:46;;;;;;;13.60;4.60;;;;;;;28.26;44.29;94589.84;4936602;28;20528;-62
2022/08/26 09:11:12;;;;;;;14.25;4.97;;;;;;;28.28;44.05;94584.50;4929130;28;20043;-61
2022/08/26 09:13:38;;;;;;;14.00;4.22;;;;;;;28.15;43.52;94556.56;4926207;28;20526;-61
2022/08/26 09:16:07;;;;;;;17.42;4.38;;;;;;;28.29;43.69;94588.72;4954534;28;20058;-63
2022/08/26 09:18:58;;;;;;;16.50;4.40;;;;;;;28.49;44.10;94601.50;4955011;28;20055;-60
2022/08/26 09:21:23;;;;;;;13.18;4.47;;;;;;;28.22;43.65;94561.28;4929420;28;20072;-62
2022/08/26 09:23:49;;;;;;;16.20;4.47;;;;;;;28.58;44.23;94589.94;4931587;28;20605;-60
2022/08/26 09:26:20;;;;;;;17.88;4.70;;;;;;;28.76;44.18;94582.06;4938434;28;20046;-61
2022/08/26 09:28:48;;;;;;;15.38;4.13;;;;;;;28.52;43.93;94570.19;4937348;28;20522;-59
2022/08/26 09:31:24;;;;;;;15.07;4.63;;;;;;;28.73;44.29;94594.16;4938168;28;20027;-61
2022/08/26 09:34:05;;;;;;;11.73;3.97;;;;;;;28.76;44.32;94575.84;4938112;28;20047;-60
2022/08/26 09:36:40;;;;;;;13.85;4.50;;;;;;;28.13;43.89;94485.72;4905901;28;20070;-62
2022/08/26 09:39:26;;;;;;;13.10;4.00;;;;;;;28.87;43.14;94581.63;4935862;28;20067;-62
2022/08/26 09:42:10;;;;;;;13.02;3.90;;;;;;;28.66;42.74;94560.44;4936177;28;20058;-61
2022/08/26 09:44:56;;;;;;;12.38;3.85;;;;;;;28.84;41.78;94593.75;4938560;28;20043;-61
2022/08/26 09:47:45;;;;;;;11.88;4.43;;;;;;;28.77;41.68;94594.53;4926677;28;20085;-62
2022/08/26 09:50:30;;;;;;;9.70;3.60;;;;;;;28.80;41.46;94596.16;4936945;28;20047;-61
2022/08/26 09:53:20;;;;;;;12.30;4.25;;;;;;;28.82;41.56;94590.81;4927158;28;20105;-60
2022/08/26 09:55:48;;;;;;;11.98;3.78;;;;;;;28.33;41.57;94523.19;4929731;28;20059;-61
2022/08/26 09:58:36;;;;;;;11.90;4.35;;;;;;;28.24;41.67;94483.28;4931830;28;20086;-60
2022/08/26 10:01:04;;;;;;;11.18;4.35;;;;;;;29.00;41.87;94584.16;4933432;28;20070;-61
2022/08/26 10:03:31;;;;;;;12.35;4.20;;;;;;;28.61;38.79;94525.63;4934650;28;20489;-61
2022/08/26 10:05:58;;;;;;;9.70;4.28;;;;;;;27.37;38.55;94375.84;4940435;28;20454;-61
2022/08/26 10:08:38;;;;;;;13.57;4.05;;;;;;;28.24;38.23;94501.78;4939223;28;20117;-60
2022/08/26 10:11:21;;;;;;;9.40;3.80;;;;;;;28.64;36.55;94535.53;4962090;28;20066;-62
2022/08/26 10:13:49;;;;;;;8.75;4.30;;;;;;;28.43;37.58;94510.31;4928915;28;20047;-63
2022/08/26 10:16:17;;;;;;;12.43;4.40;;;;;;;28.62;37.33;94521.63;4934592;28;20028;-63
2022/08/26 10:19:07;;;;;;;14.48;4.45;;;;;;;29.15;37.17;94567.59;4937319;28;20632;-62
2022/08/26 10:21:37;;;;;;;16.25;4.65;;;;;;;28.92;37.38;94550.47;4941554;28;20044;-62
2022/08/26 10:24:03;;;;;;;10.85;4.60;;;;;;;28.86;36.53;94547.19;4944667;28;20722;-64
2022/08/26 10:26:56;;;;;;;11.40;4.20;;;;;;;29.19;37.73;94573.41;4942794;28;20599;-65
2022/08/26 10:29:28;;;;;;;11.32;4.20;;;;;;;28.52;37.12;94479.50;4929540;28;20613;-65
2022/08/26 10:31:56;;;;;;;12.63;4.18;;;;;;;28.76;38.25;94505.09;4925031;28;20169;-65
2022/08/26 10:34:22;;;;;;;14.93;4.65;;;;;;;29.09;37.72;94539.56;4925060;28;20490;-66
2022/08/26 10:36:56;;;;;;;9.77;4.70;;;;;;;29.31;36.81;94566.22;5000159;28;20101;-68
2022/08/26 10:39:35;;;;;;;11.18;4.80;;;;;;;29.38;37.34;94568.22;4943051;28;20049;-67
2022/08/26 10:42:18;;;;;;;14.52;4.72;;;;;;;29.05;37.53;94519.97;4933879;28;20044;-64
2022/08/26 10:44:43;;;;;;;10.77;4.57;;;;;;;28.02;37.36;94373.50;4965312;28;20067;-62
2022/08/26 10:47:17;;;;;;;9.65;4.20;;;;;;;29.08;37.69;94524.34;4934767;28;20046;-63
2022/08/26 10:49:43;;;;;;;10.05;4.82;;;;;;;29.11;36.99;94534.22;4929071;28;20035;-64
2022/08/26 10:52:22;;;;;;;12.27;4.57;;;;;;;29.30;37.44;94556.53;4922020;28;20023;-65
2022/08/26 10:54:53;;;;;;;13.65;4.60;;;;;;;29.22;37.41;94555.78;4921810;28;20086;-63
2022/08/26 10:57:41;;;;;;;10.85;4.60;;;;;;;29.19;37.47;94546.66;5004643;28;20051;-64
2022/08/26 11:01:40;;;;;;;10.63;4.60;;;;;;;28.71;37.70;94474.34;4932308;28;20051;-64
2022/08/26 11:02:57;;;;;;;10.43;4.40;;;;;;;29.00;38.04;94539.41;4941953;28;20517;-61
2022/08/26 11:05:23;;;;;;;9.85;4.47;;;;;;;29.01;37.90;94552.59;4906778;28;20627;-63
2022/08/26 11:07:55;;;;;;;9.98;4.20;;;;;;;28.78;37.66;94521.75;4938417;28;20039;-63
2022/08/26 11:10:21;;;;;;;11.15;4.55;;;;;;;28.87;38.84;94548.66;4931360;28;20057;-63
2022/08/26 11:13:02;;;;;;;12.30;4.85;;;;;;;28.31;38.44;94465.31;4941822;28;20831;-65
2022/08/26 11:15:28;;;;;;;9.55;5.05;;;;;;;28.77;38.98;94550.53;4939633;28;20043;-62
2022/08/26 11:18:04;;;;;;;11.30;5.07;;;;;;;28.29;38.36;94489.84;4941659;28;20489;-62
2022/08/26 11:20:40;;;;;;;8.02;4.20;;;;;;;28.01;38.89;94448.16;4938809;28;20039;-62
2022/08/26 11:23:12;;;;;;;10.68;4.53;;;;;;;28.72;39.39;94544.50;4937911;28;20031;-60
2022/08/26 11:26:08;;;;;;;9.32;4.70;;;;;;;28.62;39.36;94546.34;4941171;28;20036;-61
2022/08/26 11:28:37;;;;;;;10.35;4.75;;;;;;;28.40;39.10;94522.41;4939820;28;20047;-62
2022/08/26 11:31:04;;;;;;;13.73;4.90;;;;;;;28.55;38.24;94544.34;4939013;28;20575;-61
2022/08/26 11:33:56;;;;;;;9.23;4.95;;;;;;;28.55;38.41;94547.09;4930043;28;20418;-64
2022/08/26 11:36:37;;;;;;;10.48;5.35;;;;;;;28.45;39.16;94546.22;4934763;28;20118;-60